Time;durP1;ratioP1;P1;durP2;ratioP2;P2;SDS_P1;SDS_P2;PMS_P1;PMS_P2;Temp;Humidity;BMP_temperature;BMP_pressure;BME280_temperature;BME280_humidity;BME280_pressure;Samples;Min_cycle;Max_cycle;Signal;HPM_P1;HPM_P2
2021/01/11 00:01:23;;;;;;;30.97;22.23;;;-2.90;99.90;;;;;;4952122;28;20893;-78
2021/01/11 00:03:50;;;;;;;35.83;27.57;;;-2.90;99.90;;;;;;4952514;29;20489;-80
2021/01/11 00:06:16;;;;;;;33.57;25.53;;;-2.90;99.90;;;;;;4952354;29;20450;-73
2021/01/11 00:08:42;;;;;;;34.20;25.63;;;-3.00;99.90;;;;;;4951934;29;20456;-76
2021/01/11 00:11:09;;;;;;;33.20;25.40;;;-3.00;99.90;;;;;;4951879;29;20455;-76
2021/01/11 00:13:36;;;;;;;30.37;24.60;;;-2.90;99.90;;;;;;4951757;29;20203;-76
2021/01/11 00:16:02;;;;;;;28.30;25.13;;;-3.00;99.90;;;;;;4951911;29;20924;-77
2021/01/11 00:18:28;;;;;;;30.30;25.00;;;-3.00;99.90;;;;;;4952146;29;20444;-79
2021/01/11 00:20:54;;;;;;;28.85;25.75;;;-2.90;99.90;;;;;;4951739;28;20971;-75
2021/01/11 00:23:20;;;;;;;34.92;26.15;;;-2.90;99.90;;;;;;4951503;28;20693;-77
2021/01/11 00:25:47;;;;;;;29.23;24.97;;;-3.00;99.90;;;;;;4951875;29;20223;-76
2021/01/11 00:28:13;;;;;;;28.77;22.50;;;-3.00;99.90;;;;;;4951944;29;20467;-77
2021/01/11 00:30:40;;;;;;;25.67;22.73;;;-3.10;99.90;;;;;;4951750;29;20200;-77
2021/01/11 00:33:06;;;;;;;30.70;24.77;;;-3.10;99.90;;;;;;4951612;28;20466;-77
2021/01/11 00:35:32;;;;;;;33.15;24.75;;;-3.10;99.90;;;;;;4951660;29;20211;-77
2021/01/11 00:37:58;;;;;;;29.43;24.70;;;-3.10;99.90;;;;;;4949216;29;20206;-79
2021/01/11 00:40:25;;;;;;;30.40;25.00;;;-3.10;99.90;;;;;;4951709;29;20810;-79
2021/01/11 00:42:51;;;;;;;27.00;24.07;;;-3.20;99.90;;;;;;4951616;29;20203;-81
2021/01/11 00:45:17;;;;;;;29.00;25.20;;;-3.20;99.90;;;;;;4951610;28;20515;-79
2021/01/11 00:47:44;;;;;;;32.73;26.20;;;-3.20;99.90;;;;;;4951714;29;20485;-81
2021/01/11 00:50:11;;;;;;;28.30;23.85;;;-3.20;99.90;;;;;;4952009;29;20452;-79
2021/01/11 00:52:37;;;;;;;33.28;26.27;;;-3.20;99.90;;;;;;4951432;29;20386;-80
2021/01/11 00:55:06;;;;;;;29.70;24.85;;;-3.20;99.90;;;;;;4951349;29;20197;-79
2021/01/11 00:57:32;;;;;;;35.33;25.10;;;-3.20;99.90;;;;;;4951340;29;20210;-72
2021/01/11 00:59:58;;;;;;;36.30;27.67;;;-3.30;99.90;;;;;;4948806;29;20965;-73
2021/01/11 01:02:24;;;;;;;32.60;24.77;;;-3.30;99.90;;;;;;4952005;28;20566;-73
2021/01/11 01:04:51;;;;;;;32.27;24.47;;;-3.20;99.90;;;;;;4951150;29;20534;-76
2021/01/11 01:07:17;;;;;;;29.10;22.67;;;-3.30;99.90;;;;;;4951122;29;20835;-76
2021/01/11 01:09:43;;;;;;;33.20;25.00;;;-3.40;99.90;;;;;;4951161;29;20462;-76
2021/01/11 01:12:10;;;;;;;31.43;25.97;;;-3.40;99.90;;;;;;4952430;29;20938;-77
2021/01/11 01:14:36;;;;;;;34.20;26.10;;;-3.40;99.90;;;;;;4952386;29;20984;-76
2021/01/11 01:17:02;;;;;;;36.40;27.20;;;-3.40;99.90;;;;;;4952408;29;20471;-79
2021/01/11 01:19:28;;;;;;;31.73;25.00;;;-3.50;99.90;;;;;;4952599;29;20464;-79
2021/01/11 01:21:55;;;;;;;34.05;26.10;;;-3.50;99.90;;;;;;4952342;28;20531;-78
2021/01/11 05:39:12;;;;;;;27.38;21.63;;;-4.80;99.90;;;;;;6036425;23;20216;-73
2021/01/11 05:41:40;;;;;;;25.13;22.17;;;-4.80;99.90;;;;;;4925437;29;20245;-75
2021/01/11 05:44:11;;;;;;;29.90;22.00;;;-4.70;99.90;;;;;;4932870;29;20667;-77
2021/01/11 05:46:38;;;;;;;31.13;21.98;;;-4.60;99.90;;;;;;4932797;29;20640;-76
2021/01/11 05:49:06;;;;;;;27.50;22.70;;;-4.60;99.90;;;;;;4932933;29;20206;-77
2021/01/11 05:51:34;;;;;;;26.23;21.27;;;-4.60;99.90;;;;;;4936239;29;20221;-76
2021/01/11 05:54:00;;;;;;;33.33;23.25;;;-4.60;99.90;;;;;;4936478;29;20626;-77
2021/01/11 05:56:27;;;;;;;38.45;25.35;;;-4.60;99.90;;;;;;4936502;29;20217;-79
2021/01/11 05:59:06;;;;;;;30.08;23.23;;;-4.60;99.90;;;;;;4936695;29;20697;-76
2021/01/11 06:01:34;;;;;;;29.42;23.65;;;-4.60;99.90;;;;;;4936592;29;20214;-73
2021/01/11 06:04:00;;;;;;;34.17;25.35;;;-4.60;99.90;;;;;;4936468;29;20612;-73
2021/01/11 06:06:27;;;;;;;30.67;26.05;;;-4.60;99.90;;;;;;4936323;29;20221;-82
2021/01/11 06:08:54;;;;;;;33.08;25.40;;;-4.60;99.90;;;;;;4937452;29;20547;-81
2021/01/11 06:11:22;;;;;;;29.83;24.48;;;-4.60;99.90;;;;;;4938243;29;20203;-83
2021/01/11 06:13:51;;;;;;;28.67;25.42;;;-4.60;99.90;;;;;;4935535;29;20218;-82
2021/01/11 06:16:18;;;;;;;30.27;23.52;;;-4.60;99.90;;;;;;4937525;29;20199;-82
2021/01/11 06:18:45;;;;;;;31.63;27.17;;;-4.60;99.90;;;;;;4936644;29;20213;-82
2021/01/11 06:21:12;;;;;;;35.42;26.98;;;-4.60;99.90;;;;;;4937028;29;20216;-82
2021/01/11 06:23:39;;;;;;;32.47;27.10;;;-4.60;99.90;;;;;;4937511;29;20228;-83
2021/01/11 06:26:29;;;;;;;30.33;26.80;;;-4.60;99.90;;;;;;4937308;29;20457;-80
2021/01/11 06:28:58;;;;;;;33.05;25.67;;;-4.60;99.90;;;;;;4927844;29;20220;-81
2021/01/11 06:31:29;;;;;;;33.50;27.23;;;-4.70;99.90;;;;;;4935735;29;20214;-78
2021/01/11 06:33:56;;;;;;;34.80;25.80;;;-4.70;99.90;;;;;;4935765;29;20325;-79
2021/01/11 06:36:24;;;;;;;32.25;25.17;;;-4.50;99.90;;;;;;4935937;29;20205;-82
2021/01/11 06:38:52;;;;;;;30.85;24.60;;;-4.50;99.90;;;;;;4936366;29;20573;-81
2021/01/11 06:41:19;;;;;;;36.55;24.60;;;-4.50;99.90;;;;;;4953034;29;20242;-81
2021/01/11 06:43:48;;;;;;;25.92;21.58;;;-4.60;99.90;;;;;;4954767;29;20299;-81
2021/01/11 06:46:45;;;;;;;34.33;24.88;;;-4.60;99.90;;;;;;4954739;29;20198;-81
2021/01/11 06:49:24;;;;;;;27.95;22.67;;;-4.60;99.90;;;;;;4954950;29;20269;-81
2021/01/11 06:52:05;;;;;;;37.90;27.73;;;-4.70;99.90;;;;;;4955039;29;20216;-83
2021/01/11 06:54:41;;;;;;;39.63;28.85;;;-4.70;99.90;;;;;;4954895;29;20264;-83
2021/01/11 06:57:09;;;;;;;33.72;26.73;;;-4.70;99.90;;;;;;4954922;29;20625;-79
2021/01/11 06:59:38;;;;;;;33.50;24.35;;;-4.70;99.90;;;;;;4954769;29;20208;-79
2021/01/11 07:02:23;;;;;;;36.42;26.30;;;-4.70;99.90;;;;;;4954453;28;20237;-79
2021/01/11 07:04:50;;;;;;;32.42;25.27;;;-4.70;99.90;;;;;;4954585;29;20569;-79
2021/01/11 07:07:24;;;;;;;34.60;24.42;;;-4.70;99.90;;;;;;4954503;29;20212;-77
2021/01/11 07:09:53;;;;;;;29.20;22.75;;;-4.70;99.90;;;;;;4954797;29;20221;-77
2021/01/11 07:12:20;;;;;;;34.65;25.70;;;-4.70;99.90;;;;;;4954514;29;20280;-78
2021/01/11 07:15:05;;;;;;;26.98;22.65;;;-4.70;99.90;;;;;;4953945;29;20703;-76
2021/01/11 07:17:37;;;;;;;33.65;24.42;;;-4.70;99.90;;;;;;4955005;29;20205;-77
2021/01/11 07:20:05;;;;;;;34.10;25.00;;;-4.70;99.90;;;;;;4954376;29;20245;-82
2021/01/11 07:22:32;;;;;;;27.45;20.77;;;-4.80;99.90;;;;;;4954647;29;20201;-82
2021/01/11 07:24:58;;;;;;;29.55;23.88;;;-4.70;99.90;;;;;;4953992;29;20205;-82
2021/01/11 07:27:24;;;;;;;34.25;23.58;;;-4.70;99.90;;;;;;4954432;29;20664;-82
2021/01/11 07:29:56;;;;;;;20.33;18.30;;;-4.70;99.90;;;;;;4954628;29;20221;-83
2021/01/11 07:32:23;;;;;;;29.95;20.48;;;-4.70;99.90;;;;;;4954318;29;20574;-81
2021/01/11 07:34:50;;;;;;;29.23;23.77;;;-4.70;99.90;;;;;;4954121;29;20232;-81
2021/01/11 07:37:16;;;;;;;36.92;22.50;;;-4.60;99.90;;;;;;4954097;29;20211;-81
2021/01/11 07:39:43;;;;;;;24.30;20.23;;;-4.60;99.90;;;;;;4953947;29;20701;-81
2021/01/11 07:42:09;;;;;;;32.15;24.50;;;-4.60;99.90;;;;;;4953970;29;20661;-81
2021/01/11 07:44:37;;;;;;;36.38;25.75;;;-4.50;99.90;;;;;;4954357;29;20603;-80
2021/01/11 07:47:04;;;;;;;33.67;23.92;;;-4.30;99.90;;;;;;4953894;29;20212;-79
2021/01/11 07:49:33;;;;;;;30.88;25.80;;;-4.10;99.90;;;;;;4953826;29;20693;-80
2021/01/11 07:52:05;;;;;;;40.55;25.83;;;-3.90;99.90;;;;;;4953785;29;20212;-79
2021/01/11 07:54:32;;;;;;;40.03;27.73;;;-3.70;99.90;;;;;;4953709;29;20633;-80
2021/01/11 07:56:58;;;;;;;33.78;23.88;;;-3.50;99.90;;;;;;4953695;29;20210;-81
2021/01/11 07:59:24;;;;;;;25.35;20.50;;;-3.50;99.90;;;;;;4953426;29;20241;-81
2021/01/11 08:01:51;;;;;;;38.43;25.87;;;-3.40;99.90;;;;;;4953798;29;20211;-80
2021/01/11 08:04:19;;;;;;;25.95;23.27;;;-3.30;99.90;;;;;;4953550;29;20461;-80
2021/01/11 08:06:49;;;;;;;29.00;23.30;;;-3.10;99.90;;;;;;4957372;29;20201;-87
2021/01/11 08:09:17;;;;;;;32.90;25.88;;;-3.00;99.90;;;;;;4956595;29;20787;-86
2021/01/11 08:11:45;;;;;;;29.40;22.57;;;-2.90;99.90;;;;;;4953603;29;20206;-80
2021/01/11 08:14:11;;;;;;;24.33;20.73;;;-2.80;99.90;;;;;;4952559;28;20464;-81
2021/01/11 08:16:40;;;;;;;30.47;23.53;;;-2.80;99.90;;;;;;4953221;29;20458;-82
2021/01/11 08:19:07;;;;;;;20.80;17.03;;;-2.70;99.90;;;;;;4953202;29;20507;-81
2021/01/11 08:21:33;;;;;;;27.70;22.40;;;-2.70;99.90;;;;;;4953432;29;20464;-81
2021/01/11 08:24:00;;;;;;;28.57;21.60;;;-2.60;99.90;;;;;;4953276;29;20452;-81
2021/01/11 08:26:28;;;;;;;27.63;22.67;;;-2.40;99.90;;;;;;4953052;29;20451;-83
2021/01/11 08:28:56;;;;;;;30.33;23.13;;;-2.30;99.90;;;;;;4952960;29;20487;-80
2021/01/11 08:31:22;;;;;;;28.30;22.90;;;-2.20;99.90;;;;;;4953188;29;20465;-81
2021/01/11 08:33:49;;;;;;;27.10;22.40;;;-2.20;99.90;;;;;;4953390;29;20460;-80
2021/01/11 08:36:20;;;;;;;24.77;20.70;;;-2.20;99.90;;;;;;4953205;29;20563;-82
2021/01/11 08:39:24;;;;;;;22.37;18.50;;;-2.00;99.90;;;;;;4952567;29;20469;-79
2021/01/11 08:41:54;;;;;;;24.77;19.90;;;-2.10;99.90;;;;;;4953414;29;20428;-80
2021/01/11 08:44:29;;;;;;;23.00;19.73;;;-2.10;99.90;;;;;;4953268;29;20507;-80
2021/01/11 08:47:00;;;;;;;20.50;18.47;;;-2.20;99.90;;;;;;4952593;29;20453;-78
2021/01/11 08:49:27;;;;;;;26.93;20.80;;;-2.20;99.90;;;;;;4955809;29;20442;-84
2021/01/11 08:51:54;;;;;;;25.60;18.70;;;-2.10;99.90;;;;;;4959591;29;20451;-85
2021/01/11 08:54:28;;;;;;;24.93;20.37;;;-2.10;99.90;;;;;;4957353;29;20506;-85
2021/01/11 08:56:57;;;;;;;21.70;19.50;;;-2.20;99.90;;;;;;4953697;29;21029;-82
2021/01/11 08:59:24;;;;;;;27.47;21.67;;;-2.00;99.90;;;;;;4953660;29;20506;-78
2021/01/11 09:01:51;;;;;;;24.27;20.20;;;-1.70;99.90;;;;;;4935489;29;20452;-78
2021/01/11 09:04:35;;;;;;;22.37;19.80;;;-1.70;99.90;;;;;;4933065;29;20811;-79
2021/01/11 09:07:05;;;;;;;23.33;20.37;;;-1.70;99.90;;;;;;4914560;29;20944;-79
2021/01/11 09:09:33;;;;;;;26.17;20.20;;;-1.60;99.90;;;;;;4914619;29;20454;-79
2021/01/11 09:12:06;;;;;;;20.77;18.37;;;-1.60;99.90;;;;;;4914131;29;20449;-80
2021/01/11 09:14:33;;;;;;;21.37;19.10;;;-1.60;99.90;;;;;;4914364;29;20493;-79
2021/01/11 09:17:02;;;;;;;23.80;20.33;;;-1.70;99.90;;;;;;4914124;29;20552;-77
2021/01/11 09:19:29;;;;;;;26.50;20.53;;;-1.50;99.90;;;;;;4914412;29;20456;-78
2021/01/11 09:22:02;;;;;;;22.60;20.30;;;-1.10;99.90;;;;;;4914307;29;21034;-79
2021/01/11 09:24:28;;;;;;;23.53;19.43;;;-0.70;99.90;;;;;;4915375;29;20594;-81
2021/01/11 09:26:55;;;;;;;19.70;17.60;;;-0.70;99.90;;;;;;4917906;29;20545;-82
2021/01/11 09:29:23;;;;;;;22.13;19.37;;;-1.00;99.90;;;;;;4918070;29;20509;-79
2021/01/11 09:31:49;;;;;;;20.87;18.70;;;-0.50;99.90;;;;;;4918049;29;20446;-79
2021/01/11 09:34:16;;;;;;;23.67;21.13;;;-0.40;99.90;;;;;;4918001;29;20454;-78
2021/01/11 09:36:42;;;;;;;21.13;19.03;;;0.00;99.90;;;;;;4917713;29;20457;-79
2021/01/11 09:39:10;;;;;;;21.20;18.53;;;0.00;99.90;;;;;;4917640;29;20479;-78
2021/01/11 09:41:41;;;;;;;20.57;18.57;;;0.10;99.90;;;;;;4917551;29;20484;-79
2021/01/11 09:44:07;;;;;;;23.00;20.50;;;-0.10;99.90;;;;;;4917920;29;20467;-79
2021/01/11 09:46:41;;;;;;;21.23;18.00;;;-0.10;99.90;;;;;;4918027;29;20478;-78
2021/01/11 09:49:07;;;;;;;23.17;20.27;;;0.10;99.90;;;;;;4932136;29;20487;-78
2021/01/11 09:51:33;;;;;;;20.57;18.50;;;0.60;99.90;;;;;;4936845;29;20461;-78
2021/01/11 09:53:59;;;;;;;24.30;21.40;;;0.90;99.90;;;;;;4936625;29;20456;-78
2021/01/11 09:56:26;;;;;;;23.03;20.57;;;0.80;99.90;;;;;;4936459;29;20496;-78
2021/01/11 09:58:53;;;;;;;29.93;23.20;;;1.00;99.90;;;;;;4936801;29;20473;-77
2021/01/11 10:01:19;;;;;;;22.57;20.10;;;1.10;99.90;;;;;;4937076;29;20468;-77
2021/01/11 10:03:47;;;;;;;24.70;20.60;;;1.20;99.90;;;;;;4936756;29;20463;-78
2021/01/11 10:06:13;;;;;;;21.13;18.53;;;1.00;99.90;;;;;;4936525;29;20464;-78
2021/01/11 10:08:39;;;;;;;31.60;21.73;;;0.70;99.90;;;;;;4936212;29;20454;-78
2021/01/11 10:11:12;;;;;;;23.67;20.97;;;0.60;99.90;;;;;;4936413;29;20463;-78
2021/01/11 10:13:38;;;;;;;23.53;20.97;;;1.20;99.90;;;;;;4936339;29;20810;-77
2021/01/11 10:16:05;;;;;;;23.33;20.93;;;1.20;99.90;;;;;;4936377;29;20490;-78
2021/01/11 10:18:31;;;;;;;24.30;21.07;;;1.20;99.90;;;;;;4936121;29;20466;-78
2021/01/11 10:20:58;;;;;;;21.60;19.40;;;0.70;99.90;;;;;;4936188;29;20859;-78
2021/01/11 10:23:25;;;;;;;29.33;22.40;;;0.80;99.90;;;;;;4935895;29;20970;-78
2021/01/11 10:25:51;;;;;;;25.50;21.77;;;0.80;99.90;;;;;;4936237;29;20970;-77
2021/01/11 10:28:17;;;;;;;22.67;18.93;;;0.90;99.90;;;;;;4936345;29;20459;-77
2021/01/11 10:30:44;;;;;;;21.57;19.27;;;1.20;99.90;;;;;;4936324;29;20453;-77
2021/01/11 10:33:10;;;;;;;24.47;20.80;;;1.20;99.90;;;;;;4936050;29;20457;-75
2021/01/11 10:35:36;;;;;;;27.23;21.90;;;1.30;99.90;;;;;;4935172;29;20862;-78
2021/01/11 10:38:03;;;;;;;21.60;19.43;;;1.50;99.90;;;;;;4935860;29;20453;-79
2021/01/11 10:40:29;;;;;;;24.03;21.70;;;1.90;99.90;;;;;;4935737;29;20484;-76
2021/01/11 10:42:56;;;;;;;22.70;20.50;;;2.10;99.90;;;;;;4935769;29;20487;-79
2021/01/11 10:45:22;;;;;;;25.27;22.47;;;2.40;99.80;;;;;;4936019;29;20453;-78
2021/01/11 10:47:50;;;;;;;22.50;20.20;;;2.50;99.30;;;;;;4935864;29;20964;-74
2021/01/11 10:50:16;;;;;;;24.87;21.67;;;2.90;99.40;;;;;;4935806;29;20461;-77
2021/01/11 10:52:42;;;;;;;28.73;22.53;;;2.90;98.90;;;;;;4935556;29;20458;-79
2021/01/11 10:55:11;;;;;;;23.90;21.40;;;2.70;98.60;;;;;;4935517;29;21007;-78
2021/01/11 10:57:37;;;;;;;22.37;19.50;;;3.00;98.40;;;;;;4916621;29;20478;-74
2021/01/11 11:00:09;;;;;;;23.80;21.60;;;2.60;98.40;;;;;;4916481;29;20462;-76
2021/01/11 11:02:36;;;;;;;22.90;20.53;;;2.50;99.10;;;;;;4916638;29;20458;-77
2021/01/11 11:05:04;;;;;;;24.30;21.73;;;2.40;99.30;;;;;;4916596;29;20454;-78
2021/01/11 11:07:35;;;;;;;27.27;21.43;;;2.50;99.60;;;;;;4916110;29;20498;-78
2021/01/11 11:10:03;;;;;;;23.70;19.67;;;2.80;98.90;;;;;;4916523;29;20956;-79
2021/01/11 11:12:31;;;;;;;25.40;19.27;;;2.80;98.60;;;;;;4916269;29;20454;-80
2021/01/11 11:14:59;;;;;;;22.67;20.33;;;2.30;99.70;;;;;;4916139;29;20493;-79
2021/01/11 11:17:30;;;;;;;27.13;20.93;;;2.00;99.90;;;;;;4916159;29;20678;-79
2021/01/11 11:19:56;;;;;;;26.20;20.60;;;1.70;99.90;;;;;;4916033;29;20454;-80
2021/01/11 11:22:22;;;;;;;24.20;21.60;;;1.60;99.90;;;;;;4916138;29;20460;-78
2021/01/11 11:24:49;;;;;;;21.27;19.07;;;1.50;99.90;;;;;;4916463;29;20462;-81
2021/01/11 11:27:15;;;;;;;23.07;20.67;;;1.50;99.90;;;;;;4916054;29;20517;-80
2021/01/11 11:29:42;;;;;;;27.47;22.07;;;2.10;99.90;;;;;;4915987;29;20458;-81
2021/01/11 11:32:08;;;;;;;25.03;21.83;;;2.40;99.90;;;;;;4915703;29;20462;-81
2021/01/11 11:34:35;;;;;;;24.73;22.27;;;2.30;99.90;;;;;;4915964;29;20454;-80
2021/01/11 11:37:01;;;;;;;24.83;21.30;;;1.80;99.90;;;;;;4915889;29;20473;-78
2021/01/11 11:39:27;;;;;;;23.77;20.60;;;1.60;99.90;;;;;;4922312;29;20487;-79
2021/01/11 11:41:57;;;;;;;22.97;20.57;;;1.80;99.90;;;;;;4934719;29;20464;-78
2021/01/11 11:44:24;;;;;;;27.83;21.00;;;1.60;99.90;;;;;;4934567;29;20463;-79
2021/01/11 11:46:51;;;;;;;25.77;21.63;;;2.10;99.90;;;;;;4934787;29;20453;-77
2021/01/11 11:49:18;;;;;;;25.67;22.83;;;3.20;99.90;;;;;;4934800;29;20469;-76
2021/01/11 11:51:45;;;;;;;27.50;22.70;;;4.50;98.40;;;;;;4934505;29;20454;-78
2021/01/11 11:54:11;;;;;;;25.60;22.80;;;5.10;94.90;;;;;;4934410;29;20458;-78
2021/01/11 11:56:40;;;;;;;24.17;21.60;;;5.00;94.90;;;;;;4934210;29;20492;-78
2021/01/11 11:59:07;;;;;;;23.73;21.10;;;4.80;94.60;;;;;;4934311;29;20453;-80
2021/01/11 12:01:37;;;;;;;24.00;21.17;;;5.40;94.10;;;;;;4934616;29;20456;-78
2021/01/11 12:04:05;;;;;;;23.07;20.73;;;5.00;94.20;;;;;;4934588;29;20483;-78
2021/01/11 12:06:39;;;;;;;24.60;22.10;;;4.50;94.60;;;;;;4934475;29;20444;-77
2021/01/11 12:09:06;;;;;;;22.23;20.23;;;4.70;94.60;;;;;;4934237;29;20492;-77
2021/01/11 12:11:42;;;;;;;21.37;19.33;;;5.20;94.30;;;;;;4934561;29;20456;-80
2021/01/11 12:14:08;;;;;;;22.37;20.00;;;5.00;93.30;;;;;;4935278;29;20449;-77
2021/01/11 12:16:34;;;;;;;26.20;23.47;;;4.40;93.80;;;;;;4935466;29;20576;-78
2021/01/11 12:19:01;;;;;;;22.20;20.10;;;3.80;95.10;;;;;;4934193;29;20460;-78
2021/01/11 12:21:29;;;;;;;23.93;21.13;;;3.70;95.30;;;;;;4934098;29;21021;-78
2021/01/11 12:23:55;;;;;;;24.73;21.40;;;3.70;95.50;;;;;;4933884;29;20618;-78
2021/01/11 12:26:21;;;;;;;21.37;19.37;;;3.70;95.70;;;;;;4934221;29;20816;-78
2021/01/11 12:28:47;;;;;;;22.80;20.53;;;3.60;95.70;;;;;;4933884;29;20451;-78
2021/01/11 12:31:13;;;;;;;25.87;20.73;;;3.70;95.70;;;;;;4933881;29;20455;-78
2021/01/11 12:33:39;;;;;;;24.30;21.13;;;3.80;95.60;;;;;;4933893;29;20449;-78
2021/01/11 12:36:06;;;;;;;22.93;20.63;;;4.30;95.80;;;;;;4933512;29;21011;-78
2021/01/11 12:38:33;;;;;;;27.60;23.43;;;3.70;94.90;;;;;;4933838;29;20477;-79
2021/01/11 12:40:59;;;;;;;27.20;22.80;;;3.70;95.70;;;;;;4933899;29;20870;-79
2021/01/11 12:43:25;;;;;;;23.73;21.03;;;3.60;95.60;;;;;;4935008;29;20455;-77
2021/01/11 12:45:51;;;;;;;22.47;20.07;;;3.40;96.30;;;;;;4933786;29;20856;-78
2021/01/11 12:48:17;;;;;;;21.77;19.67;;;3.30;96.30;;;;;;4933685;29;20991;-78
2021/01/11 12:50:44;;;;;;;22.33;20.20;;;3.80;95.80;;;;;;4933370;29;20468;-78
2021/01/11 12:53:10;;;;;;;28.20;21.90;;;4.10;95.00;;;;;;4931142;29;20459;-78
2021/01/11 12:55:37;;;;;;;21.03;19.00;;;3.60;95.30;;;;;;4931674;29;20485;-78
2021/01/11 12:58:03;;;;;;;22.07;19.77;;;2.80;96.40;;;;;;4933408;29;20464;-78
2021/01/11 13:00:29;;;;;;;23.90;18.60;;;2.00;98.40;;;;;;4932676;29;20457;-78
2021/01/11 13:02:56;;;;;;;20.97;18.77;;;1.50;99.90;;;;;;4933221;29;20461;-78
2021/01/11 13:05:22;;;;;;;24.30;19.47;;;1.30;99.90;;;;;;4933348;29;20456;-78
2021/01/11 13:07:48;;;;;;;22.50;20.30;;;1.30;99.90;;;;;;4933395;29;20795;-78
2021/01/11 13:10:15;;;;;;;20.70;18.80;;;1.20;99.90;;;;;;4933230;29;20459;-78
2021/01/11 13:12:42;;;;;;;25.03;19.10;;;1.20;99.90;;;;;;4933363;29;20519;-78
2021/01/11 13:15:09;;;;;;;21.67;18.07;;;1.40;99.90;;;;;;4933040;29;20483;-78
2021/01/11 13:17:39;;;;;;;20.43;18.33;;;1.40;99.90;;;;;;4933174;29;20451;-78
2021/01/11 13:20:07;;;;;;;22.00;19.83;;;1.40;99.90;;;;;;4933199;29;20566;-78
2021/01/11 13:22:33;;;;;;;21.07;18.97;;;1.30;99.90;;;;;;4932945;29;20563;-79
2021/01/11 13:24:59;;;;;;;28.97;20.30;;;1.50;99.90;;;;;;4933097;29;20453;-78
2021/01/11 13:27:26;;;;;;;23.60;21.03;;;1.60;99.90;;;;;;4933134;29;20468;-78
2021/01/11 13:29:53;;;;;;;18.80;17.00;;;1.40;99.90;;;;;;4933099;29;20451;-77
2021/01/11 13:32:19;;;;;;;21.77;19.50;;;1.40;99.90;;;;;;4933183;29;20449;-78
2021/01/11 13:34:46;;;;;;;24.90;19.10;;;1.20;99.90;;;;;;4932826;29;20464;-77
2021/01/11 13:37:13;;;;;;;20.57;18.40;;;1.40;99.90;;;;;;4933060;29;20971;-79
2021/01/11 13:39:39;;;;;;;19.83;18.00;;;1.30;99.90;;;;;;4934603;29;20485;-78
2021/01/11 13:42:11;;;;;;;20.60;18.50;;;1.30;99.90;;;;;;4952286;29;20451;-77
2021/01/11 13:44:38;;;;;;;19.53;17.37;;;1.20;99.90;;;;;;4951754;29;20472;-78
2021/01/11 13:47:05;;;;;;;18.03;16.33;;;1.20;99.90;;;;;;4952350;29;20965;-77
2021/01/11 13:49:31;;;;;;;18.73;16.83;;;1.10;99.90;;;;;;4952367;29;20471;-76
2021/01/11 13:51:59;;;;;;;18.60;16.70;;;1.10;99.90;;;;;;4952069;29;20460;-76
2021/01/11 13:54:25;;;;;;;17.73;16.20;;;1.10;99.90;;;;;;4952246;29;20630;-76
2021/01/11 13:56:52;;;;;;;21.17;19.00;;;1.10;99.90;;;;;;4939042;29;20524;-76
2021/01/11 13:59:18;;;;;;;21.03;19.00;;;1.20;99.90;;;;;;4933247;29;20976;-76
2021/01/11 14:01:45;;;;;;;25.33;17.43;;;1.20;99.90;;;;;;4933023;29;21014;-76
2021/01/11 14:04:13;;;;;;;18.83;16.93;;;1.30;99.90;;;;;;4932778;29;20527;-76
2021/01/11 14:06:39;;;;;;;20.80;18.60;;;1.50;99.90;;;;;;4932899;29;20456;-76
2021/01/11 14:09:06;;;;;;;19.87;17.83;;;1.40;99.90;;;;;;4932778;29;20471;-75
2021/01/11 14:11:33;;;;;;;22.47;17.73;;;1.40;99.90;;;;;;4933845;29;20462;-76
2021/01/11 14:13:59;;;;;;;18.80;16.90;;;1.30;99.90;;;;;;4935881;29;20988;-76
2021/01/11 14:16:27;;;;;;;20.40;18.20;;;1.30;99.90;;;;;;4936056;29;20541;-75
2021/01/11 14:18:54;;;;;;;20.33;18.20;;;1.20;99.90;;;;;;4936165;29;20473;-76
2021/01/11 14:21:21;;;;;;;20.03;18.00;;;1.20;99.90;;;;;;4936526;29;20796;-76
2021/01/11 14:23:48;;;;;;;22.90;18.50;;;1.10;99.90;;;;;;4936363;29;20495;-76
2021/01/11 14:26:16;;;;;;;21.03;18.70;;;1.00;99.90;;;;;;4935996;29;20466;-76
2021/01/11 14:28:43;;;;;;;20.50;18.60;;;1.00;99.90;;;;;;4936170;29;20505;-76
2021/01/11 14:31:09;;;;;;;19.17;17.30;;;1.00;99.90;;;;;;4936007;29;20455;-76
2021/01/11 14:33:35;;;;;;;18.77;16.80;;;1.00;99.90;;;;;;4935998;29;20449;-76
2021/01/11 14:36:01;;;;;;;20.33;18.23;;;0.90;99.90;;;;;;4935718;29;20494;-76
2021/01/11 14:38:29;;;;;;;20.07;17.17;;;0.90;99.90;;;;;;4935615;29;20479;-75
2021/01/11 14:40:55;;;;;;;21.77;18.37;;;0.80;99.90;;;;;;4935654;29;21070;-76
2021/01/11 14:43:21;;;;;;;20.10;17.43;;;0.80;99.90;;;;;;4935813;29;20503;-76
2021/01/11 14:45:48;;;;;;;20.73;18.40;;;0.90;99.90;;;;;;4935592;29;20457;-76
2021/01/11 14:48:14;;;;;;;21.37;19.23;;;0.90;99.90;;;;;;4935733;29;20452;-76
2021/01/11 14:50:42;;;;;;;20.17;17.83;;;0.90;99.90;;;;;;4935563;29;20451;-76
2021/01/11 14:53:12;;;;;;;20.00;16.80;;;0.90;99.90;;;;;;4935545;29;20473;-77
2021/01/11 14:55:39;;;;;;;20.30;18.40;;;1.00;99.90;;;;;;4935331;29;20490;-75
2021/01/11 14:58:05;;;;;;;19.47;17.47;;;1.00;99.90;;;;;;4935870;29;20460;-76
2021/01/11 15:00:31;;;;;;;18.47;16.90;;;1.00;99.90;;;;;;4935508;29;20481;-76
2021/01/11 15:02:57;;;;;;;20.87;18.90;;;1.00;99.90;;;;;;4935465;29;20476;-75
2021/01/11 15:05:24;;;;;;;19.90;17.87;;;1.00;99.90;;;;;;4935626;29;20792;-76
2021/01/11 15:07:50;;;;;;;28.80;20.13;;;1.10;99.90;;;;;;4935668;29;20483;-75
2021/01/11 15:10:16;;;;;;;20.43;18.00;;;1.10;99.90;;;;;;4935478;29;20844;-76
2021/01/11 15:12:43;;;;;;;20.37;18.23;;;1.00;99.90;;;;;;4934687;29;20514;-75
2021/01/11 15:15:10;;;;;;;20.80;18.70;;;1.00;99.90;;;;;;4935000;29;20481;-76
2021/01/11 15:17:38;;;;;;;18.83;17.07;;;1.00;99.90;;;;;;4934895;29;20460;-76
2021/01/11 15:20:06;;;;;;;19.80;17.90;;;0.90;99.90;;;;;;4935318;29;20485;-76
2021/01/11 15:22:32;;;;;;;17.73;16.00;;;0.90;99.90;;;;;;4934184;29;20461;-77
2021/01/11 15:24:58;;;;;;;21.37;18.77;;;0.90;99.90;;;;;;4934900;29;20461;-77
2021/01/11 15:27:24;;;;;;;19.37;17.57;;;0.90;99.90;;;;;;4934516;29;20483;-77
2021/01/11 15:29:51;;;;;;;19.40;16.30;;;0.90;99.90;;;;;;4934914;29;20453;-77
2021/01/11 15:32:17;;;;;;;21.37;19.17;;;0.90;99.90;;;;;;4934905;29;20823;-77
2021/01/11 15:34:44;;;;;;;20.37;18.30;;;0.90;99.90;;;;;;4934680;29;20457;-77
2021/01/11 15:37:10;;;;;;;17.00;15.40;;;0.80;99.90;;;;;;4934424;29;21098;-77
2021/01/11 15:39:36;;;;;;;25.50;17.43;;;0.80;99.90;;;;;;4935983;29;20478;-76
2021/01/11 15:42:05;;;;;;;23.40;18.00;;;0.80;99.90;;;;;;4953853;29;20456;-77
2021/01/11 15:44:32;;;;;;;24.10;17.40;;;0.90;99.90;;;;;;4953534;29;20459;-76
2021/01/11 15:46:59;;;;;;;21.90;19.60;;;1.00;99.90;;;;;;4953741;29;20758;-76
2021/01/11 15:49:25;;;;;;;18.90;17.10;;;0.90;99.90;;;;;;4953239;29;20479;-77
2021/01/11 15:51:51;;;;;;;21.50;19.40;;;0.90;99.90;;;;;;4953518;29;20804;-77
2021/01/11 15:54:18;;;;;;;21.17;18.20;;;0.90;99.90;;;;;;4953091;29;20453;-77
2021/01/11 15:56:47;;;;;;;20.17;18.13;;;0.80;99.90;;;;;;4941089;29;20492;-77
2021/01/11 15:59:46;;;;;;;20.33;18.13;;;0.80;99.90;;;;;;4934382;29;20461;-78
2021/01/11 16:02:13;;;;;;;18.03;16.23;;;0.80;99.90;;;;;;4924148;29;20474;-77
2021/01/11 16:04:40;;;;;;;26.77;19.23;;;0.80;99.90;;;;;;4934416;29;20500;-78
2021/01/11 16:07:06;;;;;;;21.50;19.30;;;0.70;99.90;;;;;;4934505;29;20455;-78
2021/01/11 16:09:32;;;;;;;19.13;17.17;;;0.80;99.90;;;;;;4934409;29;20456;-78
2021/01/11 16:11:59;;;;;;;22.60;20.20;;;0.70;99.90;;;;;;4934219;29;20509;-77
2021/01/11 16:14:25;;;;;;;22.97;18.70;;;0.70;99.90;;;;;;4934347;29;20460;-77
2021/01/11 16:16:54;;;;;;;23.70;19.80;;;0.70;99.90;;;;;;4934077;29;20494;-77
2021/01/11 16:19:21;;;;;;;22.57;18.30;;;0.70;99.90;;;;;;4934222;29;20453;-77
2021/01/11 16:21:48;;;;;;;24.80;21.50;;;0.60;99.90;;;;;;4934284;29;20468;-77
2021/01/11 16:24:15;;;;;;;29.10;20.00;;;0.70;99.90;;;;;;4934172;29;20525;-78
2021/01/11 16:26:41;;;;;;;24.00;19.70;;;0.70;99.90;;;;;;4934046;29;20454;-77
2021/01/11 16:29:07;;;;;;;23.03;18.90;;;0.60;99.90;;;;;;4934195;29;20971;-77
2021/01/11 16:31:33;;;;;;;21.23;18.67;;;0.60;99.90;;;;;;4934032;29;20513;-77
2021/01/11 16:34:00;;;;;;;28.53;20.80;;;0.70;99.90;;;;;;4933442;29;20457;-77
2021/01/11 16:36:28;;;;;;;21.47;19.27;;;0.70;99.90;;;;;;4933800;29;20540;-77
2021/01/11 16:38:54;;;;;;;20.97;18.70;;;0.60;99.90;;;;;;4933709;29;20500;-78
2021/01/11 16:41:22;;;;;;;22.73;20.43;;;0.60;99.90;;;;;;4933659;29;20489;-77
2021/01/11 16:43:50;;;;;;;33.80;18.57;;;0.60;99.90;;;;;;4933868;29;20806;-77
2021/01/11 16:46:16;;;;;;;22.67;20.27;;;0.60;99.90;;;;;;4933908;29;20443;-77
2021/01/11 16:48:43;;;;;;;22.40;20.20;;;0.60;99.90;;;;;;4933812;29;20451;-77
2021/01/11 16:51:09;;;;;;;22.23;19.30;;;0.60;99.90;;;;;;4934194;29;20594;-77